Time;durP1;ratioP1;P1;durP2;ratioP2;P2;SDS_P1;SDS_P2;PMS_P1;PMS_P2;Temp;Humidity;BMP_temperature;BMP_pressure;BME280_temperature;BME280_humidity;BME280_pressure;Samples;Min_cycle;Max_cycle;Signal;HPM_P1;HPM_P2
2022/12/15 00:38:51;;;;;;;31.81;29.00;;;;;;;-2.21;66.39;101847.42;457172;116;922597;-77
2022/12/15 00:39:57;;;;;;;31.20;28.41;;;;;;;-2.25;66.17;101856.56;457357;116;922869;-77
2022/12/15 00:41:00;;;;;;;31.48;28.79;;;;;;;-2.28;66.14;101857.64;457194;116;922528;-77
2022/12/15 00:42:04;;;;;;;31.95;29.13;;;;;;;-2.30;66.15;101864.89;458231;115;922574;-77
2022/12/15 00:43:10;;;;;;;32.04;29.27;;;;;;;-2.31;66.23;101863.17;458240;115;922714;-77
2022/12/15 00:44:12;;;;;;;32.14;29.27;;;;;;;-2.29;66.53;101871.95;457080;116;922900;-78
2022/12/15 00:45:18;;;;;;;30.52;27.81;;;;;;;-2.25;66.63;101867.25;456486;116;922650;-77
2022/12/15 00:47:42;;;;;;;31.06;28.43;;;;;;;-2.16;66.90;101872.87;457044;116;930450;-79
2022/12/15 00:48:46;;;;;;;31.24;28.52;;;;;;;-2.12;66.94;101869.02;457321;116;923084;-78
2022/12/15 00:51:12;;;;;;;28.93;26.26;;;;;;;-2.03;66.91;101869.35;457188;116;922885;-77
2022/12/15 01:21:07;;;;;;;30.02;27.55;;;;;;;-1.87;66.86;101817.44;466972;113;922485;-77
2022/12/15 01:22:10;;;;;;;31.16;28.42;;;;;;;-1.87;66.96;101816.58;467000;113;922594;-78
2022/12/15 01:23:14;;;;;;;30.65;27.86;;;;;;;-1.85;66.85;101828.03;467172;113;922950;-77
2022/12/15 01:24:17;;;;;;;31.31;28.76;;;;;;;-1.84;66.94;101825.27;467124;113;922523;-77
2022/12/15 01:25:23;;;;;;;31.59;28.62;;;;;;;-1.83;66.77;101828.80;467189;113;923056;-78
2022/12/15 01:26:26;;;;;;;31.54;28.74;;;;;;;-1.81;66.77;101824.18;457172;116;922617;-78
2022/12/15 01:27:29;;;;;;;32.15;29.24;;;;;;;-1.79;66.79;101832.96;455030;116;922599;-77
2022/12/15 01:28:33;;;;;;;32.23;29.27;;;;;;;-1.80;66.49;101821.41;455841;116;921999;-77
2022/12/15 01:29:36;;;;;;;32.70;29.84;;;;;;;-1.80;66.39;101820.55;456320;114;922105;-77
2022/12/15 01:30:39;;;;;;;33.58;30.72;;;;;;;-1.80;66.41;101823.22;456323;114;922253;-77
2022/12/15 01:31:42;;;;;;;33.74;30.47;;;;;;;-1.79;66.42;101824.94;456327;112;922030;-78
2022/12/15 01:32:46;;;;;;;32.65;29.64;;;;;;;-1.78;66.39;101819.50;456211;116;922002;-78
2022/12/15 01:33:53;;;;;;;33.18;30.34;;;;;;;-1.77;66.52;101815.02;456289;116;922103;-77
2022/12/15 01:34:56;;;;;;;33.62;30.38;;;;;;;-1.75;66.44;101816.60;455971;116;922835;-78
2022/12/15 01:36:00;;;;;;;34.01;30.67;;;;;;;-1.73;66.41;101813.83;456225;116;922585;-76
2022/12/15 01:37:04;;;;;;;34.84;31.47;;;;;;;-1.72;66.45;101807.52;456051;116;922302;-78
2022/12/15 01:38:07;;;;;;;34.13;30.94;;;;;;;-1.70;66.59;101811.78;456276;116;922338;-77
2022/12/15 01:39:11;;;;;;;34.62;31.33;;;;;;;-1.69;66.38;101810.83;456080;116;921999;-77
2022/12/15 01:41:37;;;;;;;34.39;31.07;;;;;;;-1.68;66.28;101801.00;456041;116;922450;-77
2022/12/15 01:42:41;;;;;;;34.03;30.65;;;;;;;-1.68;66.19;101803.67;456220;116;922309;-77
2022/12/15 01:43:45;;;;;;;34.31;31.05;;;;;;;-1.69;66.17;101802.81;456150;116;922342;-77
2022/12/15 01:44:51;;;;;;;35.79;32.06;;;;;;;-1.70;66.11;101798.42;456040;116;921975;-78
2022/12/15 01:45:58;;;;;;;33.31;30.09;;;;;;;-1.69;66.17;101799.28;456011;116;921914;-77
2022/12/15 01:47:01;;;;;;;34.29;30.82;;;;;;;-1.70;66.06;101793.07;455993;116;922262;-78
2022/12/15 01:48:08;;;;;;;35.84;32.14;;;;;;;-1.71;65.91;101791.36;456149;116;922169;-79
2022/12/15 01:49:23;;;;;;;35.93;32.21;;;;;;;-1.73;65.88;101798.65;455920;116;922061;-75
2022/12/15 01:50:28;;;;;;;35.38;31.84;;;;;;;-1.73;65.82;101792.44;449572;118;922409;-76
2022/12/15 01:51:34;;;;;;;36.51;32.40;;;;;;;-1.74;65.91;101793.40;449531;118;922654;-78
2022/12/15 01:52:37;;;;;;;34.21;30.78;;;;;;;-1.75;65.91;101797.89;449457;118;922488;-79
2022/12/15 01:53:56;;;;;;;36.71;32.84;;;;;;;-1.74;65.83;101802.28;449675;118;922828;-79
2022/12/15 01:54:59;;;;;;;33.92;30.58;;;;;;;-1.75;65.82;101803.23;449479;118;922460;-76
2022/12/15 01:56:04;;;;;;;32.09;29.08;;;;;;;-1.76;65.80;101801.52;449824;118;922290;-78
2022/12/15 01:57:12;;;;;;;31.53;28.63;;;;;;;-1.77;65.89;101804.31;449434;118;922546;-77
2022/12/15 01:58:17;;;;;;;30.95;28.07;;;;;;;-1.78;65.79;101797.25;449273;117;922612;-79
2022/12/15 01:59:23;;;;;;;28.99;26.72;;;;;;;-1.79;65.92;101798.20;447327;118;922632;-78
2022/12/15 02:00:27;;;;;;;28.73;26.19;;;;;;;-1.78;65.81;101794.58;454921;116;930182;-76
2022/12/15 02:01:30;;;;;;;28.59;26.12;;;;;;;-1.79;65.84;101791.05;447380;118;922912;-77
2022/12/15 02:02:36;;;;;;;26.13;24.01;;;;;;;-1.80;65.72;101792.00;455137;116;930167;-78
2022/12/15 02:03:43;;;;;;;27.00;24.77;;;;;;;-1.79;65.74;101799.06;447220;118;922441;-78
2022/12/15 02:07:05;;;;;;;25.67;23.57;;;;;;;-1.80;65.64;101793.81;447122;118;930222;-78
2022/12/15 02:08:10;;;;;;;24.29;22.34;;;;;;;-1.84;65.76;101806.55;454994;116;922378;-77
2022/12/15 02:09:14;;;;;;;24.92;23.10;;;;;;;-1.86;65.81;101805.79;447236;118;922376;-77
2022/12/15 02:10:17;;;;;;;24.70;22.89;;;;;;;-1.86;65.77;101796.91;454974;116;922564;-77
2022/12/15 02:11:42;;;;;;;25.32;23.47;;;;;;;-1.85;65.76;101795.95;447320;118;922793;-78
2022/12/15 02:12:57;;;;;;;25.21;23.21;;;;;;;-1.86;65.78;101787.08;454824;116;922515;-79
2022/12/15 02:14:03;;;;;;;26.67;24.64;;;;;;;-1.86;65.69;101788.89;446415;118;922943;-78
2022/12/15 02:15:16;;;;;;;27.02;24.87;;;;;;;-1.86;65.77;101786.22;454450;116;922908;-78
2022/12/15 02:16:45;;;;;;;30.03;27.54;;;;;;;-1.86;65.66;101786.22;447136;118;922484;-78
2022/12/15 02:18:01;;;;;;;27.48;25.24;;;;;;;-1.86;65.69;101788.89;454812;116;922525;-78
2022/12/15 02:19:28;;;;;;;27.15;24.97;;;;;;;-1.86;65.75;101791.56;446874;118;922445;-78
2022/12/15 02:20:53;;;;;;;27.52;25.33;;;;;;;-1.88;65.57;101782.81;454885;116;922936;-77
2022/12/15 02:22:17;;;;;;;26.08;24.07;;;;;;;-1.90;65.57;101782.05;447185;118;923067;-78
2022/12/15 02:23:30;;;;;;;29.39;26.93;;;;;;;-1.93;65.51;101783.11;441942;118;923198;-79
2022/12/15 02:24:40;;;;;;;31.66;28.63;;;;;;;-1.94;65.48;101780.56;441465;120;922718;-79
2022/12/15 02:25:49;;;;;;;30.57;28.18;;;;;;;-1.97;65.55;101775.41;466587;113;922557;-78
2022/12/15 02:27:15;;;;;;;29.06;26.48;;;;;;;-1.99;65.41;101774.67;465599;113;922767;-79
2022/12/15 02:28:38;;;;;;;29.89;27.41;;;;;;;-2.01;65.37;101777.45;466497;113;930554;-77
2022/12/15 02:30:04;;;;;;;27.36;25.15;;;;;;;-2.02;65.41;101774.88;466659;113;922549;-78
2022/12/15 02:32:47;;;;;;;27.46;25.31;;;;;;;-2.06;65.48;101778.72;466603;113;923037;-78
2022/12/15 02:33:53;;;;;;;27.28;25.28;;;;;;;-2.09;65.62;101769.08;466626;113;923016;-78
2022/12/15 02:35:05;;;;;;;27.66;25.45;;;;;;;-2.09;65.57;101781.62;458818;115;923004;-78
2022/12/15 02:36:30;;;;;;;28.24;25.99;;;;;;;-2.09;65.68;101778.95;452203;115;922693;-78
2022/12/15 02:37:36;;;;;;;26.41;24.46;;;;;;;-2.10;65.58;101778.09;461331;113;922652;-77
2022/12/15 02:38:43;;;;;;;25.14;23.29;;;;;;;-2.11;65.67;101777.23;466595;113;922618;-78
2022/12/15 02:39:47;;;;;;;25.69;23.74;;;;;;;-2.12;65.68;101778.18;466580;113;922814;-77
2022/12/15 02:41:02;;;;;;;24.08;22.46;;;;;;;-2.11;65.71;101774.55;466679;113;922392;-78
2022/12/15 02:42:05;;;;;;;24.07;22.01;;;;;;;-2.09;65.62;101770.92;466586;113;922513;-78
2022/12/15 02:43:09;;;;;;;24.18;22.37;;;;;;;-2.09;65.54;101770.92;466750;113;922899;-78
2022/12/15 02:44:27;;;;;;;23.26;21.64;;;;;;;-2.09;65.61;101766.41;466094;114;923431;-77
2022/12/15 02:45:50;;;;;;;23.49;21.86;;;;;;;-2.08;65.55;101765.45;465715;114;922522;-77
2022/12/15 02:47:03;;;;;;;22.97;21.32;;;;;;;-2.08;65.65;101762.78;464706;114;922858;-78
2022/12/15 02:48:13;;;;;;;22.74;21.06;;;;;;;-2.07;65.67;101761.83;466061;114;922595;-79
2022/12/15 02:49:43;;;;;;;22.14;20.52;;;;;;;-2.08;65.59;101759.25;464154;114;922640;-78
2022/12/15 02:50:58;;;;;;;22.98;21.41;;;;;;;-2.08;65.62;101761.92;465418;114;922496;-80
2022/12/15 02:52:24;;;;;;;21.89;20.41;;;;;;;-2.08;65.76;101764.59;465520;114;925728;-79
2022/12/15 02:53:34;;;;;;;21.07;19.62;;;;;;;-2.09;65.66;101763.73;457737;116;922910;-76
2022/12/15 02:55:16;;;;;;;22.02;20.48;;;;;;;-1.98;65.80;101768.34;480654;110;948058;-77
2022/12/15 02:56:38;;;;;;;21.64;20.16;;;;;;;-2.12;65.81;101767.49;471511;111;922782;-79
2022/12/15 02:57:50;;;;;;;21.03;19.63;;;;;;;-2.13;65.71;101770.27;463720;111;922501;-78
2022/12/15 02:59:10;;;;;;;21.22;19.73;;;;;;;-2.01;65.87;101765.90;469025;110;947125;-78
2022/12/15 03:00:14;;;;;;;20.88;19.36;;;;;;;-2.15;65.71;101767.69;456592;116;922628;-78
2022/12/15 03:01:27;;;;;;;21.77;20.28;;;;;;;-2.14;65.71;101765.87;456600;116;922593;-78
2022/12/15 03:02:33;;;;;;;20.78;19.27;;;;;;;-2.14;65.71;101771.22;456438;116;930511;-77
2022/12/15 03:03:37;;;;;;;21.57;19.95;;;;;;;-2.15;65.71;101762.34;456562;116;922872;-77
2022/12/15 03:04:42;;;;;;;22.33;20.45;;;;;;;-2.14;65.79;101760.53;456601;116;923150;-78
2022/12/15 03:05:52;;;;;;;20.96;19.51;;;;;;;-2.13;65.79;101760.44;456517;116;930433;-77
2022/12/15 03:06:56;;;;;;;21.83;20.31;;;;;;;-2.11;65.84;101757.66;456484;116;930441;-77
2022/12/15 03:08:01;;;;;;;20.75;19.26;;;;;;;-2.08;65.81;101764.59;456282;116;922730;-78
2022/12/15 03:09:04;;;;;;;21.00;19.46;;;;;;;-2.08;65.55;101761.92;456798;116;922581;-78
2022/12/15 03:10:11;;;;;;;21.19;19.66;;;;;;;-2.09;65.42;101766.41;456678;116;922484;-78
2022/12/15 03:11:14;;;;;;;21.09;19.60;;;;;;;-2.11;65.42;101763.01;456593;116;922495;-78
2022/12/15 03:12:17;;;;;;;20.83;19.23;;;;;;;-2.11;65.50;101758.52;456782;116;922545;-78
2022/12/15 03:13:20;;;;;;;24.32;22.62;;;;;;;-2.09;65.65;101763.73;456715;116;922486;-77
2022/12/15 03:14:24;;;;;;;24.16;22.39;;;;;;;-2.08;65.59;101767.27;456763;116;922372;-78
2022/12/15 03:15:27;;;;;;;24.45;22.69;;;;;;;-2.08;65.46;101767.27;456684;116;922659;-77
2022/12/15 03:16:32;;;;;;;25.87;23.92;;;;;;;-2.08;65.52;101762.78;455761;116;922449;-77
2022/12/15 03:17:35;;;;;;;24.55;22.84;;;;;;;-2.07;65.70;101758.30;456831;116;922396;-78
2022/12/15 03:18:38;;;;;;;25.66;23.70;;;;;;;-2.06;65.76;101755.53;456748;116;922479;-78
2022/12/15 03:19:41;;;;;;;22.93;21.01;;;;;;;-2.05;65.75;101761.73;456674;116;922610;-78
2022/12/15 03:20:44;;;;;;;23.64;21.74;;;;;;;-2.03;65.68;101759.80;456699;116;930532;-76
2022/12/15 03:21:47;;;;;;;22.11;20.53;;;;;;;-2.02;65.65;101762.37;456773;116;922578;-78
2022/12/15 03:22:50;;;;;;;23.54;21.74;;;;;;;-2.02;65.67;101758.84;456768;116;922472;-77
2022/12/15 03:23:53;;;;;;;23.42;21.62;;;;;;;-2.03;65.41;101759.80;456728;116;922460;-78
2022/12/15 03:24:56;;;;;;;22.45;20.92;;;;;;;-2.05;65.32;101756.39;456751;116;922946;-77
2022/12/15 03:25:59;;;;;;;22.71;21.04;;;;;;;-2.08;65.29;101761.92;456793;116;922538;-78
2022/12/15 03:27:02;;;;;;;23.25;21.52;;;;;;;-2.13;65.20;101757.77;456749;116;922877;-77
2022/12/15 03:28:04;;;;;;;22.94;20.95;;;;;;;-2.16;65.18;101757.98;456783;116;922580;-78
2022/12/15 03:29:07;;;;;;;24.12;22.15;;;;;;;-2.19;65.16;101751.97;456743;116;922653;-78
2022/12/15 03:30:12;;;;;;;23.79;21.91;;;;;;;-2.21;65.17;101752.10;456675;116;922442;-78
2022/12/15 03:31:15;;;;;;;22.34;20.82;;;;;;;-2.24;65.06;101751.43;456677;116;922769;-78
2022/12/15 03:32:18;;;;;;;22.17;20.62;;;;;;;-2.26;65.09;101750.70;456766;116;922451;-78
2022/12/15 03:33:21;;;;;;;21.74;20.29;;;;;;;-2.29;65.19;101754.42;456757;116;923078;-77
2022/12/15 03:34:25;;;;;;;22.27;20.66;;;;;;;-2.30;65.21;101755.37;456775;116;922502;-78
2022/12/15 03:35:29;;;;;;;23.27;21.54;;;;;;;-2.30;65.29;101754.52;456680;116;922501;-76
2022/12/15 03:36:32;;;;;;;22.61;21.12;;;;;;;-2.30;65.46;101757.19;456613;116;930444;-78
2022/12/15 03:37:35;;;;;;;23.27;21.54;;;;;;;-2.29;65.58;101756.23;456656;116;923116;-78
2022/12/15 03:38:38;;;;;;;24.19;22.39;;;;;;;-2.28;65.53;101752.61;456685;116;930554;-76
2022/12/15 03:39:41;;;;;;;32.84;29.79;;;;;;;-2.29;65.61;101751.75;456787;116;922493;-78
2022/12/15 03:40:44;;;;;;;35.52;32.28;;;;;;;-2.27;65.77;101757.86;456803;116;923326;-78
2022/12/15 03:41:47;;;;;;;40.18;36.26;;;;;;;-2.25;65.97;101761.26;456793;116;922513;-77
2022/12/15 03:42:50;;;;;;;38.14;34.59;;;;;;;-2.22;65.88;101749.52;456793;116;922496;-78
2022/12/15 03:43:53;;;;;;;39.87;36.11;;;;;;;-2.20;66.08;101753.78;456750;116;922846;-77
2022/12/15 03:44:56;;;;;;;35.24;32.21;;;;;;;-2.18;66.13;101746.53;456758;116;922782;-78
2022/12/15 03:45:59;;;;;;;38.83;35.13;;;;;;;-2.15;66.21;101754.33;456745;116;922484;-78
2022/12/15 03:47:02;;;;;;;37.87;34.09;;;;;;;-2.12;66.14;101751.47;456715;116;922626;-78
2022/12/15 03:48:06;;;;;;;30.22;27.82;;;;;;;-2.09;66.19;101744.21;456666;116;922398;-79
2022/12/15 03:49:09;;;;;;;27.68;25.22;;;;;;;-2.06;66.17;101743.98;456767;116;922437;-78
2022/12/15 03:50:15;;;;;;;26.97;24.91;;;;;;;-2.06;66.14;101744.84;456689;116;922733;-78
2022/12/15 03:51:18;;;;;;;25.98;23.93;;;;;;;-2.05;66.16;101746.56;456635;116;922634;-78
2022/12/15 03:52:21;;;;;;;23.11;21.50;;;;;;;-2.02;66.21;101740.12;456824;116;922561;-78
2022/12/15 03:53:23;;;;;;;21.11;19.45;;;;;;;-2.02;66.04;101743.66;456747;116;922509;-77
2022/12/15 03:54:26;;;;;;;20.50;18.98;;;;;;;-2.04;66.06;101748.24;456749;116;922530;-78
2022/12/15 03:55:29;;;;;;;19.88;18.48;;;;;;;-2.04;65.89;101750.91;456776;116;922705;-77
2022/12/15 03:56:32;;;;;;;20.57;19.14;;;;;;;-2.05;65.94;101743.89;456769;116;922522;-78
2022/12/15 03:57:36;;;;;;;19.45;18.06;;;;;;;-2.06;65.83;101749.33;456699;116;922563;-78
2022/12/15 03:58:39;;;;;;;19.57;18.19;;;;;;;-2.07;65.83;101747.61;456471;116;930571;-78
2022/12/15 03:59:43;;;;;;;21.44;19.84;;;;;;;-2.08;65.93;101756.58;456300;116;922598;-77
2022/12/15 04:00:45;;;;;;;20.32;18.87;;;;;;;-2.10;65.74;101748.69;456238;116;930505;-78
2022/12/15 04:01:48;;;;;;;20.92;19.41;;;;;;;-2.12;65.76;101747.93;456314;116;922561;-77
2022/12/15 04:02:52;;;;;;;22.11;20.46;;;;;;;-2.16;65.60;101747.30;456190;116;922286;-77
2022/12/15 04:03:56;;;;;;;20.79;19.32;;;;;;;-2.18;65.54;101756.36;456195;116;922632;-80
2022/12/15 04:05:01;;;;;;;20.87;19.21;;;;;;;-2.21;65.60;101752.10;455831;116;930539;-78
2022/12/15 04:06:04;;;;;;;20.62;19.12;;;;;;;-2.24;65.58;101752.29;456322;116;922589;-78
2022/12/15 04:07:08;;;;;;;20.37;18.91;;;;;;;-2.26;65.63;101751.53;456311;116;922488;-77
2022/12/15 04:08:11;;;;;;;22.68;20.74;;;;;;;-2.27;65.76;101757.00;456239;116;922522;-78
2022/12/15 04:09:14;;;;;;;24.04;22.02;;;;;;;-2.27;65.72;101763.20;456237;116;922833;-78
2022/12/15 04:10:18;;;;;;;21.43;19.71;;;;;;;-2.27;65.68;101760.53;456296;116;922471;-77
2022/12/15 04:11:21;;;;;;;42.48;34.39;;;;;;;-2.28;65.73;101765.97;456303;116;922447;-77
2022/12/15 04:12:23;;;;;;;30.09;27.11;;;;;;;-2.29;65.76;101761.58;456232;116;922438;-77
2022/12/15 04:13:27;;;;;;;24.36;22.51;;;;;;;-2.27;65.80;101765.02;456267;116;922453;-76
2022/12/15 04:14:30;;;;;;;24.59;22.54;;;;;;;-2.28;65.99;101773.98;456237;116;922669;-78
2022/12/15 04:15:34;;;;;;;26.56;24.33;;;;;;;-2.26;66.02;101775.56;456286;116;922384;-77
2022/12/15 04:16:37;;;;;;;34.13;30.82;;;;;;;-2.23;66.09;101772.70;456062;116;923104;-78
2022/12/15 04:17:41;;;;;;;27.92;25.41;;;;;;;-2.20;66.10;101771.63;456244;116;922495;-78
2022/12/15 04:18:44;;;;;;;24.73;22.94;;;;;;;-2.20;65.84;101768.95;456132;116;923629;-76
2022/12/15 04:21:08;;;;;;;22.31;20.48;;;;;;;-2.19;65.91;101773.34;456017;116;922461;-78
2022/12/15 04:22:11;;;;;;;22.09;20.30;;;;;;;-2.18;65.88;101770.58;456198;116;922783;-77
2022/12/15 04:23:16;;;;;;;21.50;19.90;;;;;;;-2.17;65.97;101774.11;455427;116;922574;-78
2022/12/15 05:32:52;;;;;;;21.56;19.99;;;;;;;-1.81;66.74;101760.02;457282;116;922678;-79
2022/12/15 05:33:56;;;;;;;21.01;19.39;;;;;;;-1.80;66.83;101753.72;457932;115;922615;-78
2022/12/15 05:35:00;;;;;;;21.89;20.08;;;;;;;-1.80;66.79;101741.21;457341;115;922034;-78
2022/12/15 05:36:04;;;;;;;21.89;19.93;;;;;;;-1.76;66.79;101749.86;458623;115;922240;-78
2022/12/15 05:37:07;;;;;;;21.77;20.16;;;;;;;-1.75;66.77;101744.41;458609;115;921988;-77
2022/12/15 05:38:09;;;;;;;19.87;18.36;;;;;;;-1.72;66.63;101746.03;458719;115;921973;-76
2022/12/15 05:39:12;;;;;;;20.53;18.99;;;;;;;-1.71;66.55;101745.08;458607;115;922035;-78
2022/12/15 05:40:15;;;;;;;22.71;21.01;;;;;;;-1.70;66.55;101744.95;458580;115;922200;-78
2022/12/15 05:41:19;;;;;;;23.36;21.40;;;;;;;-1.67;66.61;101743.03;458683;115;922053;-79
2022/12/15 05:42:22;;;;;;;21.45;19.91;;;;;;;-1.65;66.64;101749.14;458632;116;922086;-78
2022/12/15 05:43:25;;;;;;;21.85;20.23;;;;;;;-1.63;66.63;101749.87;458711;116;922058;-77
2022/12/15 05:44:29;;;;;;;21.89;20.26;;;;;;;-1.61;66.55;101751.48;458584;115;922049;-77
2022/12/15 05:45:32;;;;;;;21.66;19.71;;;;;;;-1.58;66.64;101761.09;458691;115;922594;-77
2022/12/15 05:46:35;;;;;;;22.21;20.52;;;;;;;-1.57;66.52;101766.34;458733;115;922133;-78
2022/12/15 05:47:38;;;;;;;21.93;20.46;;;;;;;-1.55;66.60;101761.75;458574;116;922015;-77
2022/12/15 05:48:41;;;;;;;22.31;20.52;;;;;;;-1.52;66.54;101766.01;458582;115;930028;-77
2022/12/15 05:49:44;;;;;;;21.97;20.26;;;;;;;-1.50;66.65;101764.95;458728;115;922125;-78
2022/12/15 05:50:46;;;;;;;23.00;21.34;;;;;;;-1.47;66.51;101771.89;458687;115;922135;-77
2022/12/15 05:51:51;;;;;;;22.09;20.38;;;;;;;-1.45;66.47;101765.48;458506;115;922371;-78
2022/12/15 05:52:56;;;;;;;22.04;20.15;;;;;;;-1.42;66.63;101762.58;458625;115;929949;-77
2022/12/15 05:53:59;;;;;;;23.77;21.74;;;;;;;-1.39;66.64;101770.40;449921;118;921990;-79
2022/12/15 05:55:02;;;;;;;21.52;19.84;;;;;;;-1.37;66.59;101765.77;450065;118;922104;-76
2022/12/15 05:56:08;;;;;;;21.57;19.99;;;;;;;-1.34;66.46;101759.36;449647;118;922383;-77
2022/12/15 05:57:10;;;;;;;21.99;20.29;;;;;;;-1.32;66.45;101758.27;457711;115;922273;-78
2022/12/15 05:58:13;;;;;;;22.09;20.21;;;;;;;-1.29;66.50;101757.21;457635;114;922416;-79
2022/12/15 05:59:17;;;;;;;21.59;20.02;;;;;;;-1.28;66.52;101743.73;457218;115;922591;-76
2022/12/15 06:00:21;;;;;;;21.98;20.24;;;;;;;-1.24;66.49;101751.52;449462;118;922410;-79
2022/12/15 06:01:25;;;;;;;21.41;19.82;;;;;;;-1.23;66.41;101745.22;449459;118;930418;-78
2022/12/15 06:02:28;;;;;;;21.79;20.27;;;;;;;-1.21;66.56;101748.64;449445;118;930779;-77
2022/12/15 06:03:31;;;;;;;22.99;21.01;;;;;;;-1.19;66.59;101746.70;449564;118;922611;-75
2022/12/15 06:04:34;;;;;;;22.42;20.64;;;;;;;-1.16;66.43;101749.16;449497;118;922551;-76
2022/12/15 06:05:38;;;;;;;22.04;20.32;;;;;;;-1.15;66.55;101745.50;449592;118;922532;-76
2022/12/15 06:06:41;;;;;;;21.02;19.38;;;;;;;-1.12;66.55;101747.97;449491;118;922676;-79
2022/12/15 06:07:44;;;;;;;21.05;19.34;;;;;;;-1.10;66.37;101743.38;449506;118;922648;-78
2022/12/15 06:08:47;;;;;;;22.00;20.21;;;;;;;-1.10;66.32;101738.02;449482;118;930631;-77
2022/12/15 06:09:52;;;;;;;20.40;19.05;;;;;;;-1.11;66.42;101739.84;449408;118;922261;-79
2022/12/15 06:10:55;;;;;;;19.99;18.54;;;;;;;-1.10;66.35;101736.17;449576;118;922297;-79
2022/12/15 06:11:58;;;;;;;19.77;18.36;;;;;;;-1.08;66.36;101744.09;449425;118;922487;-78
2022/12/15 06:13:01;;;;;;;20.07;18.67;;;;;;;-1.08;66.32;101738.74;449565;118;922649;-80
2022/12/15 06:14:04;;;;;;;20.86;19.27;;;;;;;-1.07;66.43;101737.78;449478;118;923185;-78
2022/12/15 06:15:07;;;;;;;20.69;18.74;;;;;;;-1.05;66.45;101738.54;449433;118;922521;-82
2022/12/15 06:16:13;;;;;;;20.71;19.08;;;;;;;-1.05;66.45;101738.54;449414;118;922583;-77
2022/12/15 06:17:16;;;;;;;20.18;18.61;;;;;;;-1.03;66.48;101731.23;449003;118;930989;-81
2022/12/15 06:18:19;;;;;;;19.52;18.07;;;;;;;-1.03;66.35;101733.91;449446;118;922464;-79
2022/12/15 06:19:22;;;;;;;20.04;18.31;;;;;;;-1.02;66.40;101744.51;449440;118;922408;-78
2022/12/15 06:20:25;;;;;;;19.82;18.31;;;;;;;-1.02;66.44;101746.33;449411;118;930405;-76
2022/12/15 06:21:31;;;;;;;19.64;18.17;;;;;;;-1.00;66.44;101742.59;449486;118;922486;-78
2022/12/15 06:22:34;;;;;;;19.80;18.28;;;;;;;-0.99;66.58;101741.59;449303;118;922448;-79
2022/12/15 06:23:38;;;;;;;19.70;18.14;;;;;;;-0.97;66.64;101738.81;449486;118;922531;-77
2022/12/15 06:24:40;;;;;;;19.88;18.42;;;;;;;-0.94;66.63;101743.96;449336;118;922433;-78
2022/12/15 06:25:45;;;;;;;20.06;18.34;;;;;;;-0.92;66.51;101744.69;448365;118;922673;-78
2022/12/15 06:26:48;;;;;;;20.09;18.68;;;;;;;-0.90;66.70;101748.11;449422;118;930492;-76
2022/12/15 06:27:52;;;;;;;20.86;19.28;;;;;;;-0.88;66.59;101741.66;449405;118;922511;-78
2022/12/15 06:28:58;;;;;;;20.35;18.88;;;;;;;-0.87;66.68;101743.38;448496;118;923102;-77
2022/12/15 06:30:01;;;;;;;22.06;20.12;;;;;;;-0.85;66.55;101745.95;449205;118;930556;-78
2022/12/15 06:31:06;;;;;;;20.80;19.11;;;;;;;-0.83;66.63;101741.34;449407;118;930526;-78
2022/12/15 06:32:09;;;;;;;21.98;20.30;;;;;;;-0.82;66.57;101740.35;449292;118;922564;-78
2022/12/15 06:33:12;;;;;;;20.89;19.39;;;;;;;-0.80;66.65;101743.78;449460;118;922773;-78
2022/12/15 06:34:16;;;;;;;21.27;19.76;;;;;;;-0.78;66.55;101752.57;449473;118;922981;-78
2022/12/15 06:35:20;;;;;;;21.27;19.55;;;;;;;-0.77;66.66;101742.72;449356;118;922536;-77
2022/12/15 06:36:23;;;;;;;21.20;19.37;;;;;;;-0.75;66.53;101746.12;449374;118;923039;-77
2022/12/15 06:37:26;;;;;;;21.93;20.21;;;;;;;-0.73;66.53;101746.88;449500;118;922473;-77
2022/12/15 06:38:29;;;;;;;20.77;19.26;;;;;;;-0.73;66.62;101745.05;449453;118;922640;-78
2022/12/15 06:39:32;;;;;;;20.63;19.11;;;;;;;-0.72;66.55;101741.41;449437;118;922923;-78
2022/12/15 06:40:35;;;;;;;20.81;19.07;;;;;;;-0.70;66.57;101741.27;449473;118;923019;-76
2022/12/15 06:41:40;;;;;;;21.84;19.94;;;;;;;-0.68;66.59;101745.56;449212;118;930485;-79
2022/12/15 06:42:43;;;;;;;22.01;20.22;;;;;;;-0.67;66.57;101739.23;449343;118;922432;-78
2022/12/15 06:43:54;;;;;;;21.31;19.66;;;;;;;-0.67;66.55;101736.56;449460;118;923089;-77
2022/12/15 06:44:57;;;;;;;21.34;19.81;;;;;;;-0.66;66.53;101738.24;449168;118;930559;-78
2022/12/15 06:46:00;;;;;;;22.68;20.69;;;;;;;-0.65;66.50;101741.78;449446;118;922586;-77
2022/12/15 06:47:03;;;;;;;20.45;18.79;;;;;;;-0.65;66.50;101742.64;449283;118;930300;-77
2022/12/15 06:48:06;;;;;;;20.04;18.67;;;;;;;-0.63;66.61;101737.17;449446;118;922679;-77
2022/12/15 06:49:09;;;;;;;20.55;18.90;;;;;;;-0.63;66.50;101743.39;449485;118;922620;-77
2022/12/15 06:50:12;;;;;;;20.89;19.27;;;;;;;-0.61;66.48;101737.93;449376;118;930399;-78
2022/12/15 06:51:15;;;;;;;20.46;18.68;;;;;;;-0.62;66.50;101736.21;449491;118;922392;-77
2022/12/15 06:52:19;;;;;;;21.08;19.52;;;;;;;-0.61;66.50;101735.25;449314;118;922518;-78
2022/12/15 06:53:23;;;;;;;20.29;18.69;;;;;;;-0.61;66.55;101736.11;449439;118;922567;-77
2022/12/15 06:54:26;;;;;;;20.75;19.01;;;;;;;-0.59;66.65;101736.83;449356;118;922542;-78
2022/12/15 06:55:29;;;;;;;20.45;18.74;;;;;;;-0.57;66.61;101734.90;449409;118;922499;-78
2022/12/15 06:56:37;;;;;;;19.66;18.21;;;;;;;-0.55;66.63;101737.47;449469;118;922458;-78
2022/12/15 06:57:40;;;;;;;19.52;17.98;;;;;;;-0.54;66.65;101734.66;449277;118;922534;-78
2022/12/15 06:58:43;;;;;;;20.50;18.95;;;;;;;-0.52;66.71;101731.87;451079;115;922504;-78
2022/12/15 06:59:45;;;;;;;20.15;18.55;;;;;;;-0.50;66.72;101727.27;453047;115;923056;-78
2022/12/15 07:00:48;;;;;;;18.89;17.52;;;;;;;-0.50;66.64;101722.73;454794;116;922504;-78
2022/12/15 07:01:52;;;;;;;19.39;17.84;;;;;;;-0.49;66.71;101721.77;454793;116;922518;-78
2022/12/15 07:02:55;;;;;;;19.86;18.44;;;;;;;-0.48;66.60;101718.13;445792;119;922568;-79
2022/12/15 07:04:00;;;;;;;20.69;18.92;;;;;;;-0.48;66.63;101720.80;445823;119;922820;-78
2022/12/15 07:05:04;;;;;;;20.04;18.44;;;;;;;-0.46;66.67;101726.91;437187;121;922567;-78
2022/12/15 07:06:10;;;;;;;20.84;19.14;;;;;;;-0.43;66.68;101723.12;436361;121;922697;-78
2022/12/15 07:07:14;;;;;;;21.07;19.56;;;;;;;-0.40;66.84;101724.73;436262;121;930512;-77
2022/12/15 07:08:17;;;;;;;19.34;17.76;;;;;;;-0.38;66.83;101725.45;436446;121;923335;-77
2022/12/15 10:17:50;;;;;;;9.09;8.33;;;;;;;1.34;66.11;101479.62;477122;110;946838;-81
2022/12/15 10:19:15;;;;;;;9.63;8.87;;;;;;;1.31;65.96;101477.22;465697;113;922455;-80
2022/12/15 10:20:22;;;;;;;9.79;8.66;;;;;;;1.40;65.71;101480.93;466018;113;922513;-81
2022/12/15 10:21:27;;;;;;;8.42;7.78;;;;;;;1.47;65.56;101480.27;465768;114;923047;-76
2022/12/15 10:22:36;;;;;;;7.82;7.26;;;;;;;1.52;65.54;101472.66;465792;114;922255;-81
2022/12/15 10:23:39;;;;;;;8.94;8.04;;;;;;;1.58;65.38;101473.95;466082;114;922327;-83
2022/12/15 10:24:43;;;;;;;8.33;7.56;;;;;;;1.63;65.07;101469.02;466091;113;922234;-81
2022/12/15 10:26:03;;;;;;;8.00;7.35;;;;;;;1.67;65.02;101457.85;465752;113;922450;-81
2022/12/15 10:27:17;;;;;;;9.51;8.02;;;;;;;1.85;64.96;101458.06;478285;110;946937;-80
2022/12/15 10:28:46;;;;;;;8.02;7.42;;;;;;;1.77;64.84;101451.65;465189;114;923097;-81
2022/12/15 10:29:57;;;;;;;8.29;7.58;;;;;;;1.81;64.64;101462.02;465215;114;922762;-78